Terminal Aerodrome Forecast
Issued by NWS

Home | Current Version | Previous Version | Text Only | Print | Product List | Glossary On
Versions: 1 2 3 4 5 6 7 8 9 10 11 12 13 14 15 16
000
FTUS42 KTBW 011949 AAA
TAFLAL
TAF AMD
KLAL 011949Z 0120/0218 25007KT P6SM VCTS SCT040CB BKN250
      TEMPO 0120/0121 VRB15G25KT 3SM TSRA BKN025CB
     FM020200 VRB03KT P6SM SCT100 BKN250
     FM021500 21005KT P6SM VCTS SCT035CB SCT250=

USA.gov is the U.S. government's official web portal to all federal, state and local government web resources and services.